createdAt,value
2019-04-25T00:02:05.646Z,14.75
2019-04-25T00:04:35.126Z,14.67
2019-04-25T00:07:04.646Z,14.78
2019-04-25T00:09:37.526Z,14.68
2019-04-25T00:12:07.396Z,14.78
2019-04-25T00:14:38.003Z,14.65
2019-04-25T00:17:07.632Z,14.83
2019-04-25T00:19:37.018Z,14.64
2019-04-25T00:22:13.880Z,14.88
2019-04-25T00:24:52.041Z,14.96
2019-04-25T00:27:23.761Z,15.15
2019-04-25T00:29:53.378Z,14.80
2019-04-25T00:32:23.177Z,14.83
2019-04-25T00:34:52.854Z,15.16
2019-04-25T00:37:22.609Z,15.02
2019-04-25T00:39:52.098Z,14.76
2019-04-25T00:42:23.125Z,14.59
2019-04-25T00:44:52.637Z,14.50
2019-04-25T00:47:22.276Z,14.77
2019-04-25T00:49:52.407Z,14.55
2019-04-25T00:52:22.876Z,14.51
2019-04-25T00:54:53.463Z,14.74
2019-04-25T00:57:23.520Z,14.89
2019-04-25T00:59:57.242Z,14.61
2019-04-25T01:02:37.213Z,14.09
2019-04-25T01:05:07.628Z,13.89
2019-04-25T01:07:37.098Z,13.82
2019-04-25T01:10:08.555Z,13.62
2019-04-25T01:12:37.950Z,13.69
2019-04-25T01:15:09.412Z,13.73
2019-04-25T01:17:38.872Z,13.87
2019-04-25T01:20:08.861Z,13.51
2019-04-25T01:22:38.255Z,13.50
2019-04-25T01:25:09.679Z,13.59
2019-04-25T01:27:39.229Z,13.20
2019-04-25T01:30:09.833Z,13.21
2019-04-25T01:32:39.276Z,13.10
2019-04-25T01:35:27.056Z,12.58
2019-04-25T01:37:58.082Z,12.57
2019-04-25T01:40:29.272Z,12.35
2019-04-25T01:43:00.444Z,12.90
2019-04-25T01:45:33.838Z,12.76
2019-04-25T01:48:03.580Z,12.78
2019-04-25T01:50:35.265Z,12.49
2019-04-25T01:53:05.060Z,12.64
2019-04-25T01:55:35.733Z,12.42
2019-04-25T01:58:07.200Z,13.13
2019-04-25T02:00:47.578Z,12.75
2019-04-25T02:03:17.145Z,13.21
2019-04-25T02:05:46.531Z,13.62
2019-04-25T02:08:16.019Z,13.42
2019-04-25T02:10:47.042Z,13.64
2019-04-25T02:13:20.840Z,13.23
2019-04-25T02:15:50.666Z,12.94
2019-04-25T02:18:20.887Z,12.82
2019-04-25T02:20:51.549Z,12.91
2019-04-25T02:23:21.705Z,12.94
2019-04-25T02:26:04.625Z,12.84
2019-04-25T02:28:23.999Z,12.69
2019-04-25T02:30:57.367Z,12.61
2019-04-25T02:33:24.739Z,12.98
2019-04-25T02:35:57.864Z,12.97
2019-04-25T02:38:29.141Z,12.43
2019-04-25T02:41:01.986Z,12.24
2019-04-25T02:43:31.336Z,12.16
2019-04-25T02:46:11.888Z,12.61
2019-04-25T02:49:02.398Z,11.90
2019-04-25T02:51:45.253Z,12.51
2019-04-25T02:54:14.973Z,13.59
2019-04-25T02:56:46.640Z,12.08
2019-04-25T02:59:15.498Z,11.83
2019-04-25T03:01:46.003Z,11.78
2019-04-25T03:04:15.385Z,11.78
2019-04-25T03:06:45.464Z,11.35
2019-04-25T03:09:15.613Z,11.65
2019-04-25T03:11:47.573Z,11.86
2019-04-25T03:14:16.302Z,11.50
2019-04-25T03:16:45.756Z,11.41
2019-04-25T03:19:16.792Z,11.37
2019-04-25T03:21:51.158Z,11.41
2019-04-25T03:24:20.621Z,11.87
2019-04-25T03:26:50.539Z,12.09
2019-04-25T03:29:21.802Z,12.37
2019-04-25T03:31:52.333Z,12.04
2019-04-25T03:34:25.081Z,11.96
2019-04-25T03:36:54.053Z,11.94
2019-04-25T03:39:27.061Z,12.89
2019-04-25T03:41:56.513Z,12.10
2019-04-25T03:44:25.922Z,12.01
2019-04-25T03:46:55.312Z,11.84
2019-04-25T03:49:25.090Z,11.70
2019-04-25T03:51:54.555Z,11.41
2019-04-25T03:54:23.945Z,11.35
2019-04-25T03:56:55.605Z,11.61
2019-04-25T03:59:24.447Z,11.56
2019-04-25T04:01:54.293Z,11.74
2019-04-25T04:04:23.882Z,11.61
2019-04-25T04:06:53.873Z,11.63
2019-04-25T04:09:24.173Z,11.64
2019-04-25T04:11:53.996Z,11.75
2019-04-25T04:14:24.228Z,11.71
2019-04-25T04:17:14.698Z,11.70
2019-04-25T04:22:45.716Z,11.52
2019-04-25T04:25:16.763Z,11.52
2019-04-25T04:27:46.162Z,11.93
2019-04-25T04:30:16.495Z,11.32
2019-04-25T04:32:46.846Z,11.37
2019-04-25T04:35:17.480Z,11.60
2019-04-25T04:37:47.019Z,11.41
2019-04-25T04:40:18.277Z,11.77
2019-04-25T04:42:47.523Z,11.85
2019-04-25T04:45:16.995Z,11.31
2019-04-25T04:47:46.390Z,11.26
2019-04-25T04:50:16.620Z,11.42
2019-04-25T04:52:46.193Z,11.65
2019-04-25T04:55:17.223Z,12.53
2019-04-25T04:57:46.673Z,11.57
2019-04-25T05:00:16.847Z,11.94
2019-04-25T05:02:50.363Z,12.14
2019-04-25T05:05:23.152Z,12.42
2019-04-25T05:07:54.194Z,12.70
2019-04-25T05:10:24.563Z,12.50
2019-04-25T05:12:54.062Z,12.50
2019-04-25T05:15:24.828Z,12.83
2019-04-25T05:17:54.431Z,12.85
2019-04-25T05:20:24.286Z,13.10
2019-04-25T05:22:54.914Z,13.43
2019-04-25T05:25:24.896Z,13.49
2019-04-25T05:28:02.883Z,13.22
2019-04-25T05:30:40.303Z,13.56
2019-04-25T05:33:09.708Z,14.11
2019-04-25T05:35:39.098Z,14.84
2019-04-25T05:38:08.488Z,14.73
2019-04-25T05:40:39.532Z,15.02
2019-04-25T05:43:10.627Z,15.11
2019-04-25T05:45:40.084Z,14.94
2019-04-25T05:48:09.472Z,14.99
2019-04-25T05:50:38.886Z,14.83
2019-04-25T05:53:08.308Z,15.15
2019-04-25T05:55:37.695Z,15.40
2019-04-25T05:58:07.099Z,15.56
2019-04-25T06:00:36.481Z,16.39
2019-04-25T06:03:05.883Z,15.92
2019-04-25T06:05:35.343Z,17.50
2019-04-25T06:08:05.039Z,17.46
2019-04-25T06:10:36.623Z,16.92
2019-04-25T06:13:13.778Z,17.30
2019-04-25T06:15:45.057Z,18.41
2019-04-25T06:18:16.079Z,19.61
2019-04-25T06:20:45.754Z,19.17
2019-04-25T06:23:16.855Z,19.08
2019-04-25T06:25:46.375Z,18.83
2019-04-25T06:28:23.999Z,18.61
2019-04-25T06:30:54.233Z,19.47
2019-04-25T06:33:24.676Z,19.41
2019-04-25T06:35:56.759Z,19.50
2019-04-25T06:38:27.252Z,19.67
2019-04-25T06:40:57.224Z,19.58
2019-04-25T06:43:26.782Z,20.30
2019-04-25T06:46:14.206Z,19.64
2019-04-25T06:48:45.688Z,19.46
2019-04-25T06:51:15.071Z,19.36
2019-04-25T06:53:44.455Z,19.64
2019-04-25T06:56:13.912Z,19.51
2019-04-25T06:58:44.286Z,19.37
2019-04-25T07:01:13.728Z,19.32
2019-04-25T07:03:44.197Z,19.90
2019-04-25T07:06:15.125Z,20.39
2019-04-25T07:08:44.937Z,20.72
2019-04-25T07:11:14.475Z,21.76
2019-04-25T07:13:44.003Z,21.10
2019-04-25T07:16:13.564Z,21.35
2019-04-25T07:18:43.572Z,21.44
2019-04-25T07:21:14.292Z,21.80
2019-04-25T07:23:46.285Z,21.78
2019-04-25T07:26:17.384Z,21.89
2019-04-25T07:28:57.497Z,21.65
2019-04-25T07:31:33.140Z,22.20
2019-04-25T07:34:04.257Z,22.13
2019-04-25T07:36:35.101Z,21.72
2019-04-25T07:39:10.521Z,21.80
2019-04-25T07:41:39.703Z,22.27
2019-04-25T07:44:09.083Z,22.28
2019-04-25T07:46:39.948Z,22.20
2019-04-25T07:49:10.309Z,22.86
2019-04-25T07:51:39.949Z,22.17
2019-04-25T07:54:09.339Z,22.47
2019-04-25T07:56:38.866Z,22.57
2019-04-25T07:59:08.640Z,23.07
2019-04-25T08:01:39.087Z,22.28
2019-04-25T08:04:08.543Z,22.48
2019-04-25T08:06:38.059Z,22.60
2019-04-25T08:09:10.960Z,23.52
2019-04-25T08:11:40.760Z,23.22
2019-04-25T08:14:21.779Z,23.65
2019-04-25T08:17:07.867Z,22.81
2019-04-25T08:19:37.958Z,23.05
2019-04-25T08:22:07.481Z,24.41
2019-04-25T08:24:37.852Z,23.92
2019-04-25T08:27:07.483Z,24.64
2019-04-25T08:29:39.213Z,24.00
2019-04-25T08:32:08.096Z,24.33
2019-04-25T08:34:38.537Z,23.60
2019-04-25T08:37:18.130Z,24.01
2019-04-25T08:39:41.815Z,24.37
2019-04-25T08:42:11.198Z,24.82
2019-04-25T08:44:41.352Z,24.75
2019-04-25T08:47:10.855Z,26.17
2019-04-25T08:49:44.126Z,25.30
2019-04-25T08:52:13.291Z,25.69
2019-04-25T08:54:47.176Z,25.56
2019-04-25T08:57:19.707Z,25.23
2019-04-25T08:59:55.597Z,25.82
2019-04-25T09:02:38.947Z,25.28
2019-04-25T09:05:24.394Z,25.12
2019-04-25T09:07:54.385Z,25.25
2019-04-25T09:10:24.303Z,25.74
2019-04-25T09:12:53.891Z,25.43
2019-04-25T09:15:24.202Z,26.16
2019-04-25T09:17:54.902Z,26.16
2019-04-25T09:20:24.521Z,26.68
2019-04-25T09:22:54.377Z,26.53
2019-04-25T09:25:24.208Z,25.38
2019-04-25T09:27:54.374Z,25.38
2019-04-25T09:30:24.256Z,26.24
2019-04-25T09:32:53.758Z,27.34
2019-04-25T09:35:23.739Z,25.91
2019-04-25T09:37:54.244Z,26.13
2019-04-25T09:40:24.124Z,26.09
2019-04-25T09:42:53.882Z,26.86
2019-04-25T09:45:41.556Z,25.42
2019-04-25T09:48:13.282Z,25.41
2019-04-25T09:50:45.421Z,25.93
2019-04-25T09:53:23.617Z,26.64
2019-04-25T09:55:54.152Z,27.36
2019-04-25T09:58:28.548Z,26.27
2019-04-25T10:01:13.772Z,26.88
2019-04-25T10:03:45.413Z,26.57
2019-04-25T10:06:17.910Z,26.38
2019-04-25T10:08:47.533Z,26.49
2019-04-25T10:11:17.508Z,26.54
2019-04-25T10:14:08.345Z,26.61
2019-04-25T10:16:37.956Z,27.57
2019-04-25T10:19:08.431Z,27.87
2019-04-25T10:21:38.075Z,27.74
2019-04-25T10:24:07.557Z,27.72
2019-04-25T10:26:38.592Z,27.66
2019-04-25T10:29:09.247Z,27.62
2019-04-25T10:31:38.804Z,27.77
2019-04-25T10:34:08.265Z,27.82
2019-04-25T10:36:39.884Z,27.61
2019-04-25T10:39:11.121Z,26.89
2019-04-25T10:41:41.395Z,26.87
2019-04-25T10:44:14.007Z,28.63
2019-04-25T10:46:46.843Z,27.08
2019-04-25T10:49:14.619Z,27.82
2019-04-25T10:51:45.806Z,27.84
2019-04-25T10:54:15.275Z,28.50
2019-04-25T10:56:46.867Z,28.26
2019-04-25T10:59:15.877Z,28.45
2019-04-25T11:01:46.374Z,29.30
2019-04-25T11:04:20.321Z,28.80
2019-04-25T11:06:49.789Z,30.19
2019-04-25T11:09:21.745Z,28.63
2019-04-25T11:11:51.208Z,28.57
2019-04-25T11:14:20.734Z,28.75
2019-04-25T11:16:50.438Z,28.73
2019-04-25T11:19:19.941Z,29.75
2019-04-25T11:21:49.457Z,29.24
2019-04-25T11:24:19.120Z,31.15
2019-04-25T11:26:50.455Z,30.53
2019-04-25T11:29:19.767Z,30.19
2019-04-25T11:31:49.397Z,29.02
2019-04-25T11:34:19.024Z,28.60
2019-04-25T11:36:48.511Z,29.34
2019-04-25T11:39:36.838Z,29.34
2019-04-25T11:42:08.143Z,28.22
2019-04-25T11:44:38.056Z,28.78
2019-04-25T11:47:08.662Z,28.07
2019-04-25T11:49:38.789Z,28.39
2019-04-25T11:52:09.111Z,29.46
2019-04-25T11:54:39.287Z,30.52
2019-04-25T11:57:09.074Z,30.01
2019-04-25T11:59:39.105Z,29.58
2019-04-25T12:02:10.816Z,29.54
2019-04-25T12:04:39.482Z,29.15
2019-04-25T12:07:09.758Z,28.83
2019-04-25T12:09:39.237Z,29.29
2019-04-25T12:12:08.715Z,29.46
2019-04-25T12:14:38.592Z,28.85
2019-04-25T12:17:08.925Z,29.20
2019-04-25T12:19:39.084Z,29.76
2019-04-25T12:22:09.323Z,29.78
2019-04-25T12:24:39.424Z,28.42
2019-04-25T12:27:09.307Z,29.35
2019-04-25T12:29:39.280Z,28.49
2019-04-25T12:32:09.608Z,29.03
2019-04-25T12:34:39.313Z,28.57
2019-04-25T12:37:09.435Z,29.10
2019-04-25T12:39:39.458Z,29.53
2019-04-25T12:42:09.709Z,29.73
2019-04-25T12:44:46.255Z,30.10
2019-04-25T12:47:16.782Z,29.27
2019-04-25T12:49:46.723Z,28.63
2019-04-25T12:52:16.128Z,29.26
2019-04-25T12:54:45.526Z,29.03
2019-04-25T12:57:16.155Z,29.56
2019-04-25T12:59:46.200Z,29.72
2019-04-25T13:02:16.982Z,30.28
2019-04-25T13:04:47.621Z,30.15
2019-04-25T13:07:18.145Z,30.06
2019-04-25T13:09:48.319Z,29.81
2019-04-25T13:12:19.997Z,29.48
2019-04-25T13:14:49.626Z,29.44
2019-04-25T13:17:19.031Z,29.37
2019-04-25T13:19:48.526Z,29.06
2019-04-25T13:22:17.885Z,28.66
2019-04-25T13:24:47.350Z,29.29
2019-04-25T13:27:34.359Z,29.01
2019-04-25T13:30:24.143Z,28.35
2019-04-25T13:32:55.546Z,28.32
2019-04-25T13:35:34.343Z,27.63
2019-04-25T13:38:03.868Z,27.41
2019-04-25T13:40:33.328Z,27.55
2019-04-25T13:43:04.558Z,27.61
2019-04-25T13:45:33.958Z,28.34
2019-04-25T13:48:04.905Z,28.74
2019-04-25T13:50:34.751Z,28.22
2019-04-25T13:53:04.155Z,28.50
2019-04-25T13:55:34.506Z,28.25
2019-04-25T13:58:04.338Z,27.98
2019-04-25T14:00:34.868Z,28.49
2019-04-25T14:03:04.572Z,28.25
2019-04-25T14:05:35.339Z,27.77
2019-04-25T14:08:04.854Z,27.77
2019-04-25T14:10:34.477Z,28.56
2019-04-25T14:13:04.348Z,27.84
2019-04-25T14:15:35.152Z,28.16
2019-04-25T14:18:22.896Z,27.22
2019-04-25T14:20:54.013Z,27.50
2019-04-25T14:23:24.525Z,27.59
2019-04-25T14:25:54.822Z,28.15
2019-04-25T14:28:25.245Z,27.27
2019-04-25T14:30:55.421Z,27.82
2019-04-25T14:33:26.586Z,27.30
2019-04-25T14:35:55.978Z,27.57
2019-04-25T14:38:26.544Z,27.57
2019-04-25T14:40:57.000Z,26.79
2019-04-25T14:43:26.416Z,26.97
2019-04-25T14:45:56.373Z,26.97
2019-04-25T14:48:25.852Z,27.85
2019-04-25T14:50:55.347Z,28.21
2019-04-25T14:53:25.753Z,27.82
2019-04-25T14:55:56.831Z,27.46
2019-04-25T14:58:28.198Z,27.77
2019-04-25T15:00:57.705Z,27.08
2019-04-25T15:03:27.178Z,27.14
2019-04-25T15:05:56.572Z,26.94
2019-04-25T15:08:26.562Z,27.26
2019-04-25T15:10:57.010Z,27.01
2019-04-25T15:13:26.407Z,26.97
2019-04-25T15:15:56.989Z,26.96
2019-04-25T15:18:26.943Z,27.04
2019-04-25T15:20:57.192Z,26.70
2019-04-25T15:23:27.320Z,26.44
2019-04-25T15:25:56.821Z,26.82
2019-04-25T15:28:26.208Z,26.67
2019-04-25T15:30:55.613Z,26.58
2019-04-25T15:33:26.408Z,26.47
2019-04-25T15:36:03.712Z,26.03
2019-04-25T15:38:40.803Z,26.54
2019-04-25T15:41:14.798Z,26.01
2019-04-25T15:43:49.591Z,26.45
2019-04-25T15:46:20.754Z,26.83
2019-04-25T15:48:50.160Z,25.93
2019-04-25T15:51:19.551Z,25.86
2019-04-25T15:53:48.940Z,25.81
2019-04-25T15:56:18.414Z,25.47
2019-04-25T15:58:47.873Z,25.34
2019-04-25T16:01:17.344Z,25.12
2019-04-25T16:03:46.731Z,25.22
2019-04-25T16:06:16.194Z,25.13
2019-04-25T16:08:45.929Z,25.22
2019-04-25T16:11:15.377Z,25.18
2019-04-25T16:13:45.438Z,25.26
2019-04-25T16:16:15.397Z,25.05
2019-04-25T16:18:45.384Z,25.08
2019-04-25T16:21:15.579Z,24.95
2019-04-25T16:23:45.525Z,24.64
2019-04-25T16:26:15.355Z,24.35
2019-04-25T16:28:45.374Z,24.55
2019-04-25T16:31:17.033Z,24.68
2019-04-25T16:33:46.416Z,24.05
2019-04-25T16:36:15.823Z,23.86
2019-04-25T16:38:45.475Z,23.80
2019-04-25T16:41:15.530Z,23.68
2019-04-25T16:43:52.804Z,23.62
2019-04-25T16:46:23.082Z,23.46
2019-04-25T16:48:52.534Z,23.22
2019-04-25T16:51:22.200Z,23.26
2019-04-25T16:53:51.727Z,23.39
2019-04-25T16:56:21.177Z,23.24
2019-04-25T16:58:51.535Z,23.41
2019-04-25T17:01:21.089Z,23.22
2019-04-25T17:03:50.542Z,23.00
2019-04-25T17:06:19.922Z,23.08
2019-04-25T17:08:49.306Z,22.85
2019-04-25T17:11:18.971Z,22.86
2019-04-25T17:13:49.995Z,22.84
2019-04-25T17:16:21.009Z,22.74
2019-04-25T17:18:54.930Z,22.64
2019-04-25T17:21:24.540Z,22.59
2019-04-25T17:23:54.016Z,22.36
2019-04-25T17:26:24.237Z,22.36
2019-04-25T17:28:55.397Z,22.43
2019-04-25T17:31:43.434Z,22.32
2019-04-25T17:34:17.050Z,22.28
2019-04-25T17:36:51.027Z,22.30
2019-04-25T17:39:31.140Z,22.21
2019-04-25T17:42:01.523Z,22.21
2019-04-25T17:44:31.638Z,22.05
2019-04-25T17:47:06.460Z,21.86
2019-04-25T17:49:33.016Z,21.56
2019-04-25T17:52:02.403Z,21.17
2019-04-25T17:54:32.756Z,20.95
2019-04-25T17:57:02.445Z,21.10
2019-04-25T17:59:32.320Z,21.05
2019-04-25T18:02:03.088Z,20.85
2019-04-25T18:04:34.037Z,20.38
2019-04-25T18:07:04.715Z,20.12
2019-04-25T18:09:34.450Z,19.67
2019-04-25T18:12:05.177Z,19.85
2019-04-25T18:14:35.214Z,19.67
2019-04-25T18:17:04.942Z,19.42
2019-04-25T18:19:36.414Z,19.35
2019-04-25T18:22:07.405Z,19.27
2019-04-25T18:24:54.701Z,18.91
2019-04-25T18:27:37.769Z,18.76
2019-04-25T18:30:07.770Z,18.56
2019-04-25T18:32:39.150Z,18.28
2019-04-25T18:35:10.308Z,18.22
2019-04-25T18:37:48.620Z,18.31
2019-04-25T18:40:19.981Z,18.48
2019-04-25T18:42:51.016Z,18.48
2019-04-25T18:45:27.651Z,18.19
2019-04-25T18:47:57.041Z,18.23
2019-04-25T18:50:28.124Z,18.05
2019-04-25T18:53:17.514Z,18.17
2019-04-25T18:55:48.668Z,18.23
2019-04-25T18:58:35.676Z,18.59
2019-04-25T19:01:13.072Z,18.98
2019-04-25T19:03:49.903Z,19.24
2019-04-25T19:06:21.538Z,19.33
2019-04-25T19:08:53.234Z,19.20
2019-04-25T19:11:22.485Z,19.22
2019-04-25T19:13:51.941Z,19.31
2019-04-25T19:16:21.333Z,19.30
2019-04-25T19:18:51.600Z,19.31
2019-04-25T19:21:21.607Z,19.33
2019-04-25T19:23:51.512Z,19.46
2019-04-25T19:26:21.985Z,19.45
2019-04-25T19:28:52.032Z,19.40
2019-04-25T19:31:22.352Z,19.13
2019-04-25T19:33:52.586Z,19.62
2019-04-25T19:36:23.004Z,18.33
2019-04-25T19:38:53.058Z,18.02
2019-04-25T19:41:27.919Z,17.99
2019-04-25T19:43:59.294Z,17.77
2019-04-25T19:46:39.079Z,17.55
2019-04-25T19:49:08.897Z,17.53
2019-04-25T19:51:39.742Z,17.65
2019-04-25T19:54:09.125Z,17.88
2019-04-25T19:56:38.578Z,18.01
2019-04-25T19:59:08.113Z,17.42
2019-04-25T20:01:37.561Z,17.40
2019-04-25T20:04:14.539Z,17.26
2019-04-25T20:07:02.265Z,17.40
2019-04-25T20:09:49.409Z,17.43
2019-04-25T20:12:19.363Z,18.25
2019-04-25T20:14:49.219Z,18.33
2019-04-25T20:17:18.609Z,17.86
2019-04-25T20:19:48.457Z,18.46
2019-04-25T20:22:18.565Z,18.63
2019-04-25T20:24:48.886Z,18.93
2019-04-25T20:27:18.551Z,19.12
2019-04-25T20:29:48.586Z,19.20
2019-04-25T20:32:18.747Z,18.84
2019-04-25T20:34:49.049Z,18.61
2019-04-25T20:37:18.870Z,18.56
2019-04-25T20:39:49.417Z,18.77
2019-04-25T20:42:18.877Z,18.78
2019-04-25T20:44:49.611Z,18.68
2019-04-25T20:47:19.957Z,18.42
2019-04-25T20:49:49.368Z,18.71
2019-04-25T20:52:18.991Z,18.33
2019-04-25T20:54:49.350Z,18.38
2019-04-25T20:57:19.023Z,18.75
2019-04-25T20:59:49.345Z,18.78
2019-04-25T21:02:19.160Z,18.70
2019-04-25T21:04:50.063Z,18.74
2019-04-25T21:07:19.453Z,18.71
2019-04-25T21:09:49.929Z,18.46
2019-04-25T21:12:19.455Z,18.41
2019-04-25T21:14:59.570Z,18.57
2019-04-25T21:17:36.617Z,17.92
2019-04-25T21:20:11.221Z,18.20
2019-04-25T21:22:41.862Z,18.67
2019-04-25T21:25:11.403Z,18.30
2019-04-25T21:27:40.877Z,18.05
2019-04-25T21:30:11.386Z,18.22
2019-04-25T21:32:53.667Z,18.34
2019-04-25T21:35:23.924Z,18.35
2019-04-25T21:37:53.600Z,18.32
2019-04-25T21:40:27.289Z,18.48
2019-04-25T21:43:01.086Z,17.77
2019-04-25T21:45:30.744Z,17.34
2019-04-25T21:48:00.789Z,17.48
2019-04-25T21:50:31.357Z,17.35
2019-04-25T21:53:01.301Z,17.55
2019-04-25T21:55:31.053Z,17.59
2019-04-25T21:58:00.606Z,18.18
2019-04-25T22:00:37.393Z,17.99
2019-04-25T22:03:09.009Z,17.88
2019-04-25T22:05:38.716Z,17.58
2019-04-25T22:08:08.280Z,17.49
2019-04-25T22:10:37.656Z,17.70
2019-04-25T22:13:14.864Z,17.69
2019-04-25T22:15:38.427Z,17.73
2019-04-25T22:18:08.013Z,18.12
2019-04-25T22:20:37.451Z,17.88
2019-04-25T22:23:07.183Z,17.74
2019-04-25T22:25:36.907Z,17.87
2019-04-25T22:28:07.553Z,17.82
2019-04-25T22:30:37.671Z,18.37
2019-04-25T22:33:14.664Z,17.52
2019-04-25T22:35:48.650Z,17.37
2019-04-25T22:38:18.316Z,18.16
2019-04-25T22:40:47.775Z,18.02
2019-04-25T22:43:17.312Z,17.78
2019-04-25T22:45:46.879Z,17.45
2019-04-25T22:48:17.909Z,16.72
2019-04-25T22:50:47.466Z,16.68
2019-04-25T22:53:22.717Z,16.45
2019-04-25T22:55:48.901Z,16.48
2019-04-25T22:58:18.359Z,16.52
2019-04-25T23:00:47.814Z,16.39
2019-04-25T23:03:23.407Z,16.06
2019-04-25T23:05:54.490Z,16.17
2019-04-25T23:08:24.193Z,16.18
2019-04-25T23:10:53.564Z,16.06
2019-04-25T23:13:22.951Z,15.63
2019-04-25T23:15:52.429Z,15.48
2019-04-25T23:18:22.192Z,15.50
2019-04-25T23:20:51.590Z,15.47
2019-04-25T23:23:21.192Z,15.61
2019-04-25T23:25:55.787Z,15.38
2019-04-25T23:28:27.082Z,15.68
2019-04-25T23:30:58.337Z,15.65
2019-04-25T23:33:28.681Z,15.87
2019-04-25T23:35:58.350Z,15.88
2019-04-25T23:38:27.796Z,15.55
2019-04-25T23:40:57.182Z,15.64
2019-04-25T23:43:26.758Z,15.52
2019-04-25T23:45:56.312Z,15.40
2019-04-25T23:48:25.896Z,15.51
2019-04-25T23:50:55.277Z,16.02
2019-04-25T23:53:24.663Z,16.08
2019-04-25T23:55:54.126Z,15.77
2019-04-25T23:58:23.517Z,15.71
